createdAt,value
2019-03-21T00:00:36.441Z,55.83
2019-03-21T00:01:36.428Z,55.54
2019-03-21T00:02:36.416Z,55.74
2019-03-21T00:03:36.411Z,55.54
2019-03-21T00:04:36.393Z,55.83
2019-03-21T00:05:36.459Z,56.04
2019-03-21T00:06:36.383Z,55.83
2019-03-21T00:07:36.399Z,55.63
2019-03-21T00:08:36.355Z,55.63
2019-03-21T00:09:36.361Z,55.54
2019-03-21T00:10:36.353Z,55.33
2019-03-21T00:11:36.312Z,55.56
2019-03-21T00:12:36.330Z,55.63
2019-03-21T00:13:36.336Z,55.74
2019-03-21T00:14:36.291Z,55.63
2019-03-21T00:15:36.271Z,55.74
2019-03-21T00:16:36.265Z,55.63
2019-03-21T00:17:36.254Z,55.83
2019-03-21T00:18:36.260Z,55.63
2019-03-21T00:19:36.272Z,55.66
2019-03-21T00:20:36.291Z,55.54
2019-03-21T00:21:36.218Z,55.66
2019-03-21T00:22:36.257Z,55.54
2019-03-21T00:23:36.206Z,55.66
2019-03-21T00:24:36.194Z,55.54
2019-03-21T00:25:36.187Z,55.63
2019-03-21T00:26:36.210Z,55.56
2019-03-21T00:27:36.145Z,55.63
2019-03-21T00:28:36.151Z,55.63
2019-03-21T00:29:36.143Z,55.63
2019-03-21T00:30:36.126Z,55.56
2019-03-21T00:31:36.118Z,55.66
2019-03-21T00:32:36.146Z,55.54
2019-03-21T00:33:36.103Z,55.63
2019-03-21T00:34:36.086Z,55.74
2019-03-21T00:35:38.504Z,55.54
2019-03-21T00:36:36.038Z,55.63
2019-03-21T00:37:36.036Z,55.66
2019-03-21T00:38:36.056Z,55.74
2019-03-21T00:39:36.022Z,55.66
2019-03-21T00:40:36.012Z,55.63
2019-03-21T00:41:35.979Z,55.83
2019-03-21T00:42:35.979Z,55.66
2019-03-21T00:43:35.969Z,55.66
2019-03-21T00:44:36.053Z,55.76
2019-03-21T00:45:35.961Z,55.66
2019-03-21T00:46:35.948Z,55.87
2019-03-21T00:47:35.933Z,55.76
2019-03-21T00:48:35.923Z,55.96
2019-03-21T00:49:35.890Z,55.96
2019-03-21T00:50:35.928Z,55.66
2019-03-21T00:51:35.877Z,55.66
2019-03-21T00:52:35.862Z,55.56
2019-03-21T00:53:35.853Z,55.76
2019-03-21T00:54:35.842Z,55.46
2019-03-21T00:55:35.842Z,55.33
2019-03-21T00:56:35.868Z,55.54
2019-03-21T00:57:35.853Z,55.36
2019-03-21T00:58:35.795Z,55.06
2019-03-21T00:59:35.783Z,54.66
2019-03-21T01:00:35.793Z,54.46
2019-03-21T01:01:35.769Z,54.75
2019-03-21T01:02:35.766Z,55.06
2019-03-21T01:03:35.811Z,55.16
2019-03-21T01:04:35.757Z,54.86
2019-03-21T01:05:35.741Z,54.66
2019-03-21T01:06:35.738Z,54.96
2019-03-21T01:07:35.725Z,54.75
2019-03-21T01:08:35.709Z,55.06
2019-03-21T01:09:35.723Z,55.16
2019-03-21T01:10:35.735Z,55.36
2019-03-21T01:11:35.674Z,55.36
2019-03-21T01:12:35.663Z,55.66
2019-03-21T01:13:35.637Z,55.46
2019-03-21T01:14:35.639Z,55.76
2019-03-21T01:15:35.621Z,55.56
2019-03-21T01:16:35.648Z,55.56
2019-03-21T01:17:35.644Z,55.56
2019-03-21T01:18:35.594Z,55.66
2019-03-21T01:19:35.585Z,56.07
2019-03-21T01:20:35.573Z,55.87
2019-03-21T01:21:35.558Z,56.27
2019-03-21T01:22:35.533Z,56.16
2019-03-21T01:23:35.583Z,56.27
2019-03-21T01:24:35.517Z,55.96
2019-03-21T01:25:35.490Z,55.66
2019-03-21T01:26:35.491Z,56.16
2019-03-21T01:27:35.492Z,56.27
2019-03-21T01:28:35.459Z,55.96
2019-03-21T01:29:35.488Z,55.76
2019-03-21T01:30:35.440Z,55.66
2019-03-21T01:31:35.445Z,55.56
2019-03-21T01:32:35.438Z,55.36
2019-03-21T01:33:35.429Z,55.46
2019-03-21T01:34:35.420Z,55.46
2019-03-21T01:35:35.434Z,55.36
2019-03-21T01:36:35.372Z,55.56
2019-03-21T01:37:35.364Z,55.46
2019-03-21T01:38:35.349Z,55.36
2019-03-21T01:39:35.342Z,55.36
2019-03-21T01:40:35.340Z,55.36
2019-03-21T01:41:35.363Z,55.56
2019-03-21T01:42:35.321Z,55.76
2019-03-21T01:43:35.306Z,55.36
2019-03-21T01:44:40.961Z,55.56
2019-03-21T01:45:36.274Z,55.16
2019-03-21T01:46:35.254Z,55.39
2019-03-21T01:47:35.299Z,55.16
2019-03-21T01:48:35.249Z,55.76
2019-03-21T01:49:35.227Z,55.69
2019-03-21T01:50:35.220Z,55.76
2019-03-21T01:51:35.215Z,55.46
2019-03-21T01:52:35.200Z,55.56
2019-03-21T01:53:35.245Z,55.79
2019-03-21T01:54:35.174Z,55.76
2019-03-21T01:55:35.209Z,55.79
2019-03-21T01:56:35.154Z,55.49
2019-03-21T01:57:35.186Z,55.39
2019-03-21T01:58:35.163Z,55.46
2019-03-21T01:59:35.137Z,55.59
2019-03-21T02:00:35.125Z,55.29
2019-03-21T02:01:35.132Z,55.59
2019-03-21T02:02:35.091Z,55.39
2019-03-21T02:03:35.086Z,54.68
2019-03-21T02:04:35.066Z,55.29
2019-03-21T02:05:35.060Z,55.19
2019-03-21T02:06:35.036Z,55.39
2019-03-21T02:07:35.068Z,55.19
2019-03-21T02:08:35.034Z,55.39
2019-03-21T02:09:35.017Z,55.39
2019-03-21T02:10:35.008Z,55.49
2019-03-21T02:11:35.003Z,55.29
2019-03-21T02:12:34.980Z,55.39
2019-03-21T02:13:35.015Z,55.08
2019-03-21T02:14:34.958Z,55.39
2019-03-21T02:15:34.953Z,55.19
2019-03-21T02:16:34.935Z,54.68
2019-03-21T02:17:34.922Z,54.99
2019-03-21T02:18:34.927Z,55.19
2019-03-21T02:19:34.954Z,55.29
2019-03-21T02:20:34.899Z,55.39
2019-03-21T02:21:34.882Z,55.29
2019-03-21T02:22:34.875Z,55.19
2019-03-21T02:23:34.855Z,54.99
2019-03-21T02:24:34.855Z,54.99
2019-03-21T02:25:34.937Z,54.99
2019-03-21T02:26:34.826Z,54.68
2019-03-21T02:27:34.808Z,54.58
2019-03-21T02:28:34.810Z,54.99
2019-03-21T02:29:34.780Z,54.79
2019-03-21T02:30:34.784Z,54.68
2019-03-21T02:31:34.809Z,54.88
2019-03-21T02:32:34.849Z,55.19
2019-03-21T02:33:34.753Z,55.08
2019-03-21T02:34:34.751Z,54.88
2019-03-21T02:35:34.651Z,54.99
2019-03-21T02:36:34.630Z,54.99
2019-03-21T02:37:34.673Z,54.88
2019-03-21T02:38:34.702Z,55.19
2019-03-21T02:39:34.689Z,55.29
2019-03-21T02:40:34.676Z,55.39
2019-03-21T02:41:34.672Z,55.29
2019-03-21T02:42:34.656Z,55.19
2019-03-21T02:43:34.700Z,55.49
2019-03-21T02:44:34.715Z,55.08
2019-03-21T02:45:34.660Z,55.29
2019-03-21T02:46:34.618Z,55.49
2019-03-21T02:47:34.606Z,55.29
2019-03-21T02:48:34.588Z,55.29
2019-03-21T02:49:34.614Z,55.29
2019-03-21T02:50:34.551Z,55.39
2019-03-21T02:51:34.541Z,55.29
2019-03-21T02:52:34.530Z,55.19
2019-03-21T02:53:34.531Z,55.08
2019-03-21T02:54:34.513Z,55.29
2019-03-21T02:55:34.541Z,55.29
2019-03-21T02:56:34.537Z,55.39
2019-03-21T02:57:34.482Z,55.19
2019-03-21T02:58:34.474Z,54.99
2019-03-21T02:59:34.531Z,54.68
2019-03-21T03:00:34.451Z,54.58
2019-03-21T03:01:34.493Z,54.48
2019-03-21T03:02:37.219Z,54.48
2019-03-21T03:03:34.425Z,54.28
2019-03-21T03:04:34.405Z,54.28
2019-03-21T03:05:34.399Z,54.38
2019-03-21T03:06:34.385Z,53.98
2019-03-21T03:07:34.411Z,53.98
2019-03-21T03:08:34.351Z,54.18
2019-03-21T03:09:34.338Z,53.98
2019-03-21T03:10:34.338Z,54.28
2019-03-21T03:11:34.320Z,54.08
2019-03-21T03:12:34.310Z,54.08
2019-03-21T03:13:34.349Z,53.67
2019-03-21T03:14:34.296Z,53.67
2019-03-21T03:15:34.286Z,54.28
2019-03-21T03:16:34.273Z,53.98
2019-03-21T03:17:34.258Z,53.60
2019-03-21T03:18:34.248Z,53.70
2019-03-21T03:19:34.291Z,54.00
2019-03-21T03:20:34.225Z,53.90
2019-03-21T03:21:34.201Z,53.58
2019-03-21T03:22:34.212Z,54.18
2019-03-21T03:23:34.195Z,54.00
2019-03-21T03:24:34.181Z,53.98
2019-03-21T03:25:35.060Z,53.58
2019-03-21T03:26:34.165Z,53.67
2019-03-21T03:27:34.147Z,53.58
2019-03-21T03:28:34.137Z,53.60
2019-03-21T03:29:34.119Z,54.21
2019-03-21T03:30:34.167Z,53.78
2019-03-21T03:31:34.237Z,53.58
2019-03-21T03:32:34.161Z,53.47
2019-03-21T03:33:34.088Z,52.97
2019-03-21T03:34:34.098Z,52.87
2019-03-21T03:35:34.048Z,53.38
2019-03-21T03:36:34.098Z,53.07
2019-03-21T03:37:34.031Z,53.38
2019-03-21T03:38:34.029Z,53.17
2019-03-21T03:39:36.854Z,53.47
2019-03-21T03:40:34.019Z,52.97
2019-03-21T03:41:33.995Z,53.27
2019-03-21T03:42:34.022Z,53.07
2019-03-21T03:43:33.975Z,53.58
2019-03-21T03:44:33.967Z,52.77
2019-03-21T03:45:38.066Z,52.69
2019-03-21T03:46:33.965Z,52.97
2019-03-21T03:47:33.956Z,52.67
2019-03-21T03:48:33.942Z,52.80
2019-03-21T03:49:33.901Z,52.67
2019-03-21T03:50:33.940Z,52.97
2019-03-21T03:51:33.882Z,53.47
2019-03-21T03:52:33.899Z,53.60
2019-03-21T03:53:33.854Z,53.00
2019-03-21T03:54:33.849Z,53.17
2019-03-21T03:55:33.822Z,52.80
2019-03-21T03:56:33.864Z,52.87
2019-03-21T03:57:33.884Z,52.77
2019-03-21T03:58:33.831Z,53.09
2019-03-21T03:59:33.811Z,52.80
2019-03-21T04:00:33.805Z,53.47
2019-03-21T04:01:33.791Z,53.38
2019-03-21T04:02:33.815Z,53.40
2019-03-21T04:03:33.775Z,53.30
2019-03-21T04:04:33.750Z,52.97
2019-03-21T04:05:33.736Z,52.80
2019-03-21T04:06:33.731Z,53.47
2019-03-21T04:07:33.738Z,53.38
2019-03-21T04:08:33.704Z,53.07
2019-03-21T04:09:33.685Z,53.30
2019-03-21T04:10:33.662Z,53.30
2019-03-21T04:11:33.658Z,53.40
2019-03-21T04:12:33.659Z,53.00
2019-03-21T04:13:33.681Z,53.00
2019-03-21T04:14:33.642Z,53.30
2019-03-21T04:15:33.638Z,53.00
2019-03-21T04:16:33.609Z,53.80
2019-03-21T04:17:33.616Z,53.60
2019-03-21T04:18:33.590Z,53.60
2019-03-21T04:19:33.601Z,53.60
2019-03-21T04:20:33.599Z,53.40
2019-03-21T04:21:33.544Z,52.69
2019-03-21T04:22:33.636Z,52.80
2019-03-21T04:23:33.552Z,52.69
2019-03-21T04:24:33.516Z,53.30
2019-03-21T04:25:33.507Z,53.50
2019-03-21T04:26:33.539Z,53.60
2019-03-21T04:27:33.484Z,53.90
2019-03-21T04:28:33.557Z,53.40
2019-03-21T04:29:33.467Z,52.80
2019-03-21T04:30:33.452Z,52.80
2019-03-21T04:31:33.433Z,52.49
2019-03-21T04:32:33.454Z,53.00
2019-03-21T04:33:33.425Z,52.49
2019-03-21T04:34:33.410Z,52.59
2019-03-21T04:35:33.392Z,52.59
2019-03-21T04:36:33.383Z,52.19
2019-03-21T04:37:33.433Z,52.59
2019-03-21T04:38:33.371Z,52.19
2019-03-21T04:39:33.365Z,52.29
2019-03-21T04:40:33.338Z,52.49
2019-03-21T04:41:33.324Z,52.39
2019-03-21T04:42:33.313Z,51.99
2019-03-21T04:43:33.329Z,52.39
2019-03-21T04:44:33.291Z,52.09
2019-03-21T04:45:33.324Z,52.09
2019-03-21T04:46:33.279Z,52.49
2019-03-21T04:47:33.260Z,52.19
2019-03-21T04:48:33.241Z,51.99
2019-03-21T04:49:33.235Z,51.89
2019-03-21T04:50:33.226Z,51.68
2019-03-21T04:51:34.078Z,51.79
2019-03-21T04:52:33.286Z,51.89
2019-03-21T04:53:33.196Z,51.18
2019-03-21T04:54:33.202Z,51.68
2019-03-21T04:55:33.185Z,51.79
2019-03-21T04:56:33.164Z,51.79
2019-03-21T04:57:33.170Z,51.59
2019-03-21T04:58:33.193Z,51.08
2019-03-21T04:59:33.142Z,51.89
2019-03-21T05:00:33.181Z,51.48
2019-03-21T05:01:33.121Z,52.09
2019-03-21T05:02:33.128Z,51.38
2019-03-21T05:03:33.096Z,51.38
2019-03-21T05:04:33.102Z,51.08
2019-03-21T05:05:33.083Z,51.38
2019-03-21T05:06:33.102Z,51.48
2019-03-21T05:07:33.098Z,51.89
2019-03-21T05:08:33.038Z,51.79
2019-03-21T05:09:33.031Z,51.89
2019-03-21T05:10:33.033Z,51.59
2019-03-21T05:11:33.006Z,50.78
2019-03-21T05:12:32.997Z,51.89
2019-03-21T05:13:33.062Z,51.99
2019-03-21T05:14:32.982Z,50.88
2019-03-21T05:15:32.967Z,51.48
2019-03-21T05:16:32.976Z,51.59
2019-03-21T05:17:32.944Z,51.28
2019-03-21T05:18:32.936Z,51.18
2019-03-21T05:19:32.979Z,51.08
2019-03-21T05:20:32.897Z,51.08
2019-03-21T05:21:32.880Z,50.98
2019-03-21T05:22:32.871Z,51.08
2019-03-21T05:23:32.866Z,50.98
2019-03-21T05:24:32.872Z,50.48
2019-03-21T05:25:32.911Z,50.88
2019-03-21T05:26:32.845Z,50.57
2019-03-21T05:27:32.848Z,50.88
2019-03-21T05:28:32.830Z,50.98
2019-03-21T05:29:32.812Z,50.48
2019-03-21T05:30:32.824Z,50.68
2019-03-21T05:31:32.841Z,49.97
2019-03-21T05:32:32.846Z,50.37
2019-03-21T05:33:32.767Z,50.37
2019-03-21T05:34:32.755Z,50.17
2019-03-21T05:35:32.746Z,50.07
2019-03-21T05:36:32.741Z,50.27
2019-03-21T05:37:32.740Z,50.48
2019-03-21T05:38:32.743Z,50.48
2019-03-21T05:39:32.694Z,50.78
2019-03-21T05:40:32.736Z,50.68
2019-03-21T05:41:32.676Z,51.08
2019-03-21T05:42:32.679Z,50.98
2019-03-21T05:43:32.718Z,51.08
2019-03-21T05:44:32.630Z,51.18
2019-03-21T05:45:32.654Z,51.18
2019-03-21T05:46:32.676Z,51.08
2019-03-21T05:47:32.612Z,51.18
2019-03-21T05:48:32.677Z,50.98
2019-03-21T05:49:32.574Z,51.08
2019-03-21T05:50:32.575Z,50.88
2019-03-21T05:51:32.578Z,51.08
2019-03-21T05:52:32.606Z,51.08
2019-03-21T05:53:32.546Z,50.98
2019-03-21T05:54:32.529Z,51.18
2019-03-21T05:55:32.529Z,50.98
2019-03-21T05:56:32.517Z,50.98
2019-03-21T05:57:32.495Z,51.38
2019-03-21T05:58:32.512Z,51.99
2019-03-21T05:59:32.463Z,50.98
2019-03-21T06:00:32.463Z,51.08
2019-03-21T06:01:32.430Z,51.18
2019-03-21T06:02:32.442Z,51.08
2019-03-21T06:03:32.480Z,50.78
2019-03-21T06:04:32.477Z,50.78
2019-03-21T06:05:32.452Z,50.48
2019-03-21T06:06:32.404Z,50.48
2019-03-21T06:07:32.390Z,50.35
2019-03-21T06:08:32.396Z,50.27
2019-03-21T06:09:32.370Z,50.07
2019-03-21T06:10:32.379Z,48.96
2019-03-21T06:11:32.407Z,49.37
2019-03-21T06:12:32.326Z,49.57
2019-03-21T06:13:32.325Z,49.47
2019-03-21T06:14:32.313Z,49.47
2019-03-21T06:15:32.299Z,49.57
2019-03-21T06:16:37.606Z,49.37
2019-03-21T06:17:33.309Z,49.47
2019-03-21T06:18:32.250Z,49.77
2019-03-21T06:19:32.262Z,49.37
2019-03-21T06:20:32.247Z,49.16
2019-03-21T06:21:32.259Z,49.27
2019-03-21T06:22:32.220Z,48.86
2019-03-21T06:23:32.238Z,49.27
2019-03-21T06:24:32.192Z,48.86
2019-03-21T06:25:32.189Z,49.27
2019-03-21T06:26:32.182Z,49.07
2019-03-21T06:27:32.170Z,48.96
2019-03-21T06:28:32.174Z,48.56
2019-03-21T06:29:32.150Z,48.66
2019-03-21T06:30:32.143Z,48.36
2019-03-21T06:31:32.106Z,48.66
2019-03-21T06:32:32.122Z,49.07
2019-03-21T06:33:32.150Z,48.26
2019-03-21T06:34:32.112Z,48.06
2019-03-21T06:35:32.089Z,48.46
2019-03-21T06:36:32.079Z,48.54
2019-03-21T06:37:32.058Z,47.96
2019-03-21T06:38:32.053Z,48.06
2019-03-21T06:39:32.050Z,47.96
2019-03-21T06:40:31.996Z,48.36
2019-03-21T06:41:32.052Z,47.96
2019-03-21T06:42:31.995Z,47.96
2019-03-21T06:43:31.985Z,47.83
2019-03-21T06:44:31.979Z,47.74
2019-03-21T06:45:31.966Z,47.74
2019-03-21T06:46:31.998Z,47.83
2019-03-21T06:47:31.983Z,47.63
2019-03-21T06:48:31.945Z,48.03
2019-03-21T06:49:31.935Z,47.13
2019-03-21T06:50:31.911Z,47.83
2019-03-21T06:51:31.918Z,47.94
2019-03-21T06:52:31.898Z,48.03
2019-03-21T06:53:31.916Z,47.33
2019-03-21T06:54:31.881Z,47.63
2019-03-21T06:55:31.833Z,48.44
2019-03-21T06:56:31.853Z,48.03
2019-03-21T06:57:31.846Z,47.63
2019-03-21T06:58:31.889Z,48.03
2019-03-21T06:59:31.804Z,47.83
2019-03-21T07:00:31.797Z,48.34
2019-03-21T07:01:31.793Z,47.63
2019-03-21T07:02:31.776Z,47.51
2019-03-21T07:03:31.767Z,48.01
2019-03-21T07:04:31.768Z,47.81
2019-03-21T07:05:31.725Z,47.20
2019-03-21T07:06:31.711Z,47.61
2019-03-21T07:07:31.718Z,48.41
2019-03-21T07:08:31.709Z,48.41
2019-03-21T07:09:31.709Z,48.41
2019-03-21T07:10:31.717Z,48.21
2019-03-21T07:11:31.699Z,48.11
2019-03-21T07:12:31.669Z,48.41
2019-03-21T07:13:31.663Z,48.32
2019-03-21T07:14:31.637Z,48.21
2019-03-21T07:15:31.615Z,48.11
2019-03-21T07:16:31.685Z,48.49
2019-03-21T07:17:31.613Z,47.89
2019-03-21T07:18:31.597Z,47.99
2019-03-21T07:19:31.576Z,48.09
2019-03-21T07:20:31.575Z,47.79
2019-03-21T07:21:31.572Z,48.19
2019-03-21T07:22:31.592Z,47.08
2019-03-21T07:23:31.538Z,47.39
2019-03-21T07:24:31.512Z,47.28
2019-03-21T07:25:31.523Z,47.28
2019-03-21T07:26:31.512Z,47.99
2019-03-21T07:27:31.497Z,47.99
2019-03-21T07:28:31.522Z,48.07
2019-03-21T07:29:31.515Z,47.46
2019-03-21T07:30:31.476Z,47.36
2019-03-21T07:31:31.451Z,46.96
2019-03-21T07:32:33.574Z,46.86
2019-03-21T07:33:31.432Z,46.76
2019-03-21T07:34:31.456Z,46.36
2019-03-21T07:35:31.426Z,46.46
2019-03-21T07:36:31.437Z,46.15
2019-03-21T07:37:31.386Z,46.26
2019-03-21T07:38:31.385Z,46.76
2019-03-21T07:39:31.372Z,46.66
2019-03-21T07:40:31.372Z,46.36
2019-03-21T07:41:31.347Z,45.95
2019-03-21T07:42:31.377Z,45.75
2019-03-21T07:43:31.313Z,45.55
2019-03-21T07:44:31.309Z,45.94
2019-03-21T07:45:31.297Z,45.95
2019-03-21T07:46:32.149Z,45.94
2019-03-21T07:47:31.268Z,45.94
2019-03-21T07:48:31.332Z,45.73
2019-03-21T07:49:32.720Z,46.03
2019-03-21T07:50:31.243Z,45.53
2019-03-21T07:51:31.233Z,45.53
2019-03-21T07:52:31.220Z,45.43
2019-03-21T07:53:31.220Z,45.33
2019-03-21T07:54:31.230Z,45.53
2019-03-21T07:55:31.184Z,45.33
2019-03-21T07:56:31.179Z,45.53
2019-03-21T07:57:31.173Z,45.33
2019-03-21T07:58:31.161Z,45.73
2019-03-21T07:59:31.134Z,45.61
2019-03-21T08:00:31.164Z,44.91
2019-03-21T08:01:31.122Z,44.60
2019-03-21T08:02:31.108Z,44.60
2019-03-21T08:03:31.097Z,44.40
2019-03-21T08:04:31.084Z,44.81
2019-03-21T08:05:39.842Z,45.01
2019-03-21T08:06:32.081Z,45.31
2019-03-21T08:07:31.059Z,45.61
2019-03-21T08:08:31.045Z,45.61
2019-03-21T08:09:31.147Z,45.61
2019-03-21T08:10:31.044Z,45.61
2019-03-21T08:11:31.007Z,46.01
2019-03-21T08:12:31.065Z,45.71
2019-03-21T08:13:30.986Z,45.61
2019-03-21T08:14:31.013Z,45.89
2019-03-21T08:15:30.941Z,45.69
2019-03-21T08:16:30.945Z,45.49
2019-03-21T08:17:30.973Z,45.69
2019-03-21T08:18:30.936Z,45.79
2019-03-21T08:19:30.924Z,45.79
2019-03-21T08:20:30.930Z,45.69
2019-03-21T08:21:30.895Z,45.99
2019-03-21T08:22:30.886Z,45.49
2019-03-21T08:23:30.885Z,45.29
2019-03-21T08:24:30.875Z,45.18
2019-03-21T08:25:30.861Z,45.59
2019-03-21T08:26:30.883Z,45.59
2019-03-21T08:27:30.831Z,45.49
2019-03-21T08:28:30.809Z,45.69
2019-03-21T08:29:30.813Z,45.26
2019-03-21T08:30:30.805Z,45.39
2019-03-21T08:31:30.828Z,45.18
2019-03-21T08:32:30.782Z,45.37
2019-03-21T08:33:30.775Z,45.17
2019-03-21T08:34:30.753Z,45.37
2019-03-21T08:35:30.745Z,45.17
2019-03-21T08:36:30.728Z,44.87
2019-03-21T08:37:30.769Z,44.67
2019-03-21T08:38:30.716Z,45.26
2019-03-21T08:39:30.695Z,45.17
2019-03-21T08:40:30.687Z,44.96
2019-03-21T08:41:30.687Z,44.87
2019-03-21T08:42:30.670Z,45.06
2019-03-21T08:43:30.903Z,44.76
2019-03-21T08:44:30.651Z,45.17
2019-03-21T08:45:30.625Z,44.67
2019-03-21T08:46:30.619Z,45.06
2019-03-21T08:47:30.606Z,44.87
2019-03-21T08:48:30.595Z,45.37
2019-03-21T08:49:30.626Z,45.14
2019-03-21T08:50:30.605Z,44.95
2019-03-21T08:51:30.570Z,44.64
2019-03-21T08:52:30.562Z,44.46
2019-03-21T08:53:30.538Z,44.95
2019-03-21T08:54:30.514Z,44.24
2019-03-21T08:55:30.566Z,44.14
2019-03-21T08:56:30.523Z,44.34
2019-03-21T08:57:30.498Z,44.24
2019-03-21T08:58:30.496Z,44.34
2019-03-21T08:59:30.475Z,45.14
2019-03-21T09:00:34.478Z,44.24
2019-03-21T09:01:30.500Z,45.04
2019-03-21T09:02:30.431Z,44.95
2019-03-21T09:03:30.426Z,44.54
2019-03-21T09:04:30.424Z,44.34
2019-03-21T09:05:30.408Z,44.44
2019-03-21T09:06:30.409Z,44.34
2019-03-21T09:07:30.484Z,44.64
2019-03-21T09:08:30.362Z,45.25
2019-03-21T09:09:30.385Z,44.64
2019-03-21T09:10:30.365Z,44.42
2019-03-21T09:11:30.365Z,44.62
2019-03-21T09:12:30.341Z,44.32
2019-03-21T09:13:30.362Z,30.98
2019-03-21T09:14:30.314Z,28.99
2019-03-21T09:15:30.219Z,27.79
2019-03-21T09:16:30.414Z,25.70
2019-03-21T09:17:30.184Z,26.31
2019-03-21T09:18:30.169Z,27.01
2019-03-21T09:19:30.188Z,26.02
2019-03-21T09:20:30.152Z,25.73
2019-03-21T09:21:30.147Z,25.23
2019-03-21T09:22:30.127Z,26.04
2019-03-21T09:23:30.114Z,25.94
2019-03-21T09:24:30.172Z,25.95
2019-03-21T09:25:30.119Z,25.05
2019-03-21T09:26:30.100Z,25.76
2019-03-21T09:27:30.066Z,27.36
2019-03-21T09:28:30.068Z,28.07
2019-03-21T09:29:30.050Z,28.37
2019-03-21T09:30:30.073Z,27.36
2019-03-21T09:31:30.024Z,26.97
2019-03-21T09:32:30.028Z,26.47
2019-03-21T09:33:30.009Z,27.47
2019-03-21T09:34:30.020Z,27.97
2019-03-21T09:35:29.987Z,27.37
2019-03-21T09:36:30.024Z,27.76
2019-03-21T09:37:29.970Z,27.56
2019-03-21T09:38:29.949Z,27.56
2019-03-21T09:39:29.947Z,27.16
2019-03-21T09:40:29.928Z,26.76
2019-03-21T09:41:29.928Z,27.06
2019-03-21T09:42:29.945Z,27.67
2019-03-21T09:43:29.896Z,27.56
2019-03-21T09:44:29.942Z,27.26
2019-03-21T09:45:29.864Z,27.76
2019-03-21T09:46:29.868Z,28.27
2019-03-21T09:47:29.857Z,26.66
2019-03-21T09:48:29.849Z,27.56
2019-03-21T09:49:29.829Z,27.26
2019-03-21T09:50:29.898Z,27.87
2019-03-21T09:51:31.174Z,28.27
2019-03-21T09:52:29.807Z,28.27
2019-03-21T09:53:29.796Z,27.66
2019-03-21T09:54:29.765Z,28.86
2019-03-21T09:55:29.776Z,28.56
2019-03-21T09:56:29.808Z,28.96
2019-03-21T09:57:29.748Z,28.45
2019-03-21T09:58:29.731Z,27.74
2019-03-21T09:59:29.729Z,28.14
2019-03-21T10:00:29.707Z,27.74
2019-03-21T10:01:29.708Z,28.95
2019-03-21T10:02:29.718Z,29.35
2019-03-21T10:03:29.682Z,28.75
2019-03-21T10:04:29.718Z,28.03
2019-03-21T10:05:29.648Z,27.93
2019-03-21T10:06:29.648Z,27.73
2019-03-21T10:07:29.624Z,27.42
2019-03-21T10:08:29.628Z,27.83
2019-03-21T10:09:29.613Z,27.73
2019-03-21T10:10:29.651Z,27.91
2019-03-21T10:11:29.591Z,27.72
2019-03-21T10:12:29.567Z,27.91
2019-03-21T10:13:29.569Z,27.61
2019-03-21T10:14:29.547Z,27.80
2019-03-21T10:15:29.550Z,27.10
2019-03-21T10:16:29.594Z,26.58
2019-03-21T10:17:29.524Z,24.58
2019-03-21T10:18:29.507Z,24.08
2019-03-21T10:19:29.508Z,24.08
2019-03-21T10:20:29.566Z,24.88
2019-03-21T10:21:29.464Z,26.48
2019-03-21T10:22:29.518Z,26.18
2019-03-21T10:23:29.448Z,26.08
2019-03-21T10:24:29.440Z,26.48
2019-03-21T10:25:29.414Z,25.47
2019-03-21T10:26:29.428Z,26.17
2019-03-21T10:27:29.406Z,25.97
2019-03-21T10:28:29.434Z,26.56
2019-03-21T10:29:29.397Z,26.27
2019-03-21T10:30:29.368Z,26.46
2019-03-21T10:31:29.371Z,25.96
2019-03-21T10:32:29.338Z,25.15
2019-03-21T10:33:29.344Z,24.24
2019-03-21T10:34:29.362Z,23.74
2019-03-21T10:35:29.330Z,24.24
2019-03-21T10:36:29.323Z,23.63
2019-03-21T10:37:29.306Z,25.13
2019-03-21T10:38:29.290Z,24.23
2019-03-21T10:39:29.319Z,23.43
2019-03-21T10:40:29.278Z,23.32
2019-03-21T10:41:29.279Z,24.30
2019-03-21T10:42:29.248Z,24.21
2019-03-21T10:43:29.220Z,24.41
2019-03-21T10:44:29.232Z,24.69
2019-03-21T10:45:29.253Z,24.49
2019-03-21T10:46:29.221Z,24.68
2019-03-21T10:47:29.188Z,23.28
2019-03-21T10:48:29.199Z,22.99
2019-03-21T10:49:29.168Z,23.77
2019-03-21T10:50:29.168Z,23.77
2019-03-21T10:51:29.182Z,23.27
2019-03-21T10:52:29.136Z,23.47
2019-03-21T10:53:29.162Z,22.78
2019-03-21T10:54:29.106Z,23.19
2019-03-21T10:55:29.088Z,23.10
2019-03-21T10:56:29.135Z,23.10
2019-03-21T10:57:29.147Z,22.89
2019-03-21T10:58:29.070Z,23.00
2019-03-21T10:59:29.065Z,23.00
2019-03-21T11:00:29.046Z,24.12
2019-03-21T11:01:29.048Z,23.42
2019-03-21T11:02:29.032Z,22.22
2019-03-21T11:03:29.029Z,22.12
2019-03-21T11:04:29.152Z,21.83
2019-03-21T11:05:28.999Z,22.23
2019-03-21T11:06:29.002Z,23.14
2019-03-21T11:07:28.973Z,22.24
2019-03-21T11:08:28.962Z,22.54
2019-03-21T11:09:28.955Z,22.25
2019-03-21T11:10:28.994Z,21.84
2019-03-21T11:11:29.018Z,22.35
2019-03-21T11:12:28.928Z,23.26
2019-03-21T11:13:28.992Z,24.66
2019-03-21T11:14:28.998Z,24.05
2019-03-21T11:15:28.885Z,23.45
2019-03-21T11:16:31.352Z,23.56
2019-03-21T11:17:28.857Z,23.26
2019-03-21T11:18:35.938Z,24.07
2019-03-21T11:19:29.939Z,25.37
2019-03-21T11:20:28.912Z,24.87
2019-03-21T11:21:28.916Z,25.87
2019-03-21T11:22:28.927Z,25.97
2019-03-21T11:23:28.891Z,24.57
2019-03-21T11:24:28.821Z,24.16
2019-03-21T11:25:28.859Z,25.97
2019-03-21T11:26:28.879Z,25.97
2019-03-21T11:27:28.853Z,25.57
2019-03-21T11:28:28.843Z,26.77
2019-03-21T11:29:28.804Z,28.08
2019-03-21T11:30:28.849Z,27.87
2019-03-21T11:31:28.847Z,28.17
2019-03-21T11:32:28.844Z,27.37
2019-03-21T11:33:28.783Z,28.48
2019-03-21T11:34:28.775Z,27.67
2019-03-21T11:35:28.661Z,25.77
2019-03-21T11:36:37.856Z,24.57
2019-03-21T11:37:29.753Z,25.57
2019-03-21T11:38:28.635Z,25.16
2019-03-21T11:39:28.757Z,25.38
2019-03-21T11:40:28.624Z,24.37
2019-03-21T11:41:28.603Z,25.18
2019-03-21T11:42:29.251Z,25.18
2019-03-21T11:43:28.658Z,26.18
2019-03-21T11:44:28.659Z,27.19
2019-03-21T11:45:28.698Z,26.28
2019-03-21T11:46:28.670Z,27.19
2019-03-21T11:47:28.605Z,25.68
2019-03-21T11:48:28.528Z,25.19
2019-03-21T11:49:28.497Z,24.39
2019-03-21T11:50:28.515Z,25.39
2019-03-21T11:51:28.535Z,24.80
2019-03-21T11:52:28.478Z,24.50
2019-03-21T11:53:28.457Z,24.70
2019-03-21T11:54:28.455Z,24.81
2019-03-21T11:55:28.423Z,24.81
2019-03-21T11:56:28.508Z,25.42
2019-03-21T11:57:28.462Z,25.52
2019-03-21T11:58:28.393Z,26.62
2019-03-21T11:59:41.334Z,26.32
2019-03-21T12:00:29.439Z,25.21
2019-03-21T12:01:28.372Z,25.12
2019-03-21T12:02:28.350Z,26.02
2019-03-21T12:03:28.393Z,25.21
2019-03-21T12:04:28.334Z,25.92
2019-03-21T12:05:28.334Z,26.92
2019-03-21T12:06:28.314Z,27.83
2019-03-21T12:07:28.295Z,28.13
2019-03-21T12:08:28.295Z,27.93
2019-03-21T12:09:28.320Z,29.03
2019-03-21T12:10:28.272Z,29.83
2019-03-21T12:11:28.253Z,29.44
2019-03-21T12:12:28.252Z,30.32
2019-03-21T12:13:28.238Z,30.02
2019-03-21T12:14:28.232Z,30.83
2019-03-21T12:15:28.258Z,30.73
2019-03-21T12:16:28.194Z,29.82
2019-03-21T12:17:28.194Z,30.81
2019-03-21T12:18:28.175Z,30.21
2019-03-21T12:19:28.174Z,29.91
2019-03-21T12:20:28.157Z,28.20
2019-03-21T12:21:28.191Z,27.50
2019-03-21T12:22:30.356Z,28.10
2019-03-21T12:23:28.167Z,28.20
2019-03-21T12:24:28.117Z,28.41
2019-03-21T12:25:28.093Z,27.20
2019-03-21T12:26:28.176Z,28.30
2019-03-21T12:27:28.120Z,27.60
2019-03-21T12:28:28.158Z,28.31
2019-03-21T12:29:28.167Z,28.22
2019-03-21T12:30:28.149Z,29.91
2019-03-21T12:31:28.129Z,29.71
2019-03-21T12:32:28.120Z,29.41
2019-03-21T12:33:28.161Z,29.50
2019-03-21T12:34:28.109Z,29.21
2019-03-21T12:35:28.093Z,29.71
2019-03-21T12:36:28.084Z,29.81
2019-03-21T12:37:28.081Z,29.69
2019-03-21T12:38:28.052Z,29.29
2019-03-21T12:39:29.101Z,29.90
2019-03-21T12:40:28.037Z,30.19
2019-03-21T12:41:28.027Z,30.08
2019-03-21T12:42:28.040Z,29.78
2019-03-21T12:43:27.905Z,30.28
2019-03-21T12:44:27.930Z,30.48
2019-03-21T12:45:27.866Z,31.29
2019-03-21T12:46:27.955Z,30.77
2019-03-21T12:47:31.678Z,30.77
2019-03-21T12:48:27.851Z,31.67
2019-03-21T12:49:27.839Z,31.59
2019-03-21T12:50:27.918Z,31.88
2019-03-21T12:51:27.906Z,31.48
2019-03-21T12:52:27.839Z,31.37